createdAt,value
2023-03-04T00:01:26.338Z,15.00
2023-03-04T00:03:53.416Z,14.43
2023-03-04T00:06:27.350Z,14.90
2023-03-04T00:08:54.489Z,14.05
2023-03-04T00:11:28.312Z,13.23
2023-03-04T00:13:55.959Z,13.48
2023-03-04T00:16:30.351Z,13.45
2023-03-04T00:19:04.357Z,12.20
2023-03-04T00:21:38.159Z,12.23
2023-03-04T00:24:12.376Z,12.82
2023-03-04T00:26:39.370Z,12.50
2023-03-04T00:29:12.344Z,11.32
2023-03-04T00:31:45.454Z,12.02
2023-03-04T00:34:12.526Z,12.05
2023-03-04T00:36:46.349Z,11.70
2023-03-04T00:39:20.345Z,10.45
2023-03-04T00:41:47.300Z,11.65
2023-03-04T00:44:20.431Z,11.13
2023-03-04T00:46:47.439Z,11.07
2023-03-04T00:49:14.466Z,11.52
2023-03-04T00:51:48.343Z,11.13
2023-03-04T00:54:21.367Z,12.55
2023-03-04T00:56:48.312Z,11.02
2023-03-04T00:59:15.400Z,11.25
2023-03-04T01:01:48.362Z,11.57
2023-03-04T01:04:15.388Z,11.15
2023-03-04T01:06:49.400Z,11.07
2023-03-04T01:09:16.546Z,11.02
2023-03-04T01:11:50.352Z,10.52
2023-03-04T01:14:17.310Z,10.65
2023-03-04T01:16:50.462Z,10.55
2023-03-04T01:19:17.588Z,11.52
2023-03-04T01:21:51.368Z,11.88
2023-03-04T01:24:18.384Z,11.10
2023-03-04T01:26:51.338Z,11.40
2023-03-04T01:29:24.403Z,11.35
2023-03-04T01:31:51.408Z,11.40
2023-03-04T01:34:25.438Z,10.15
2023-03-04T01:36:52.434Z,9.80
2023-03-04T01:39:26.371Z,10.18
2023-03-04T01:41:53.651Z,10.23
2023-03-04T01:44:27.385Z,9.82
2023-03-04T01:46:54.875Z,9.88
2023-03-04T01:49:21.984Z,10.27
2023-03-04T01:51:59.461Z,10.85
2023-03-04T01:54:26.539Z,10.57
2023-03-04T01:57:00.417Z,10.98
2023-03-04T01:59:37.324Z,11.35
2023-03-04T02:02:10.427Z,11.65
2023-03-04T02:04:37.513Z,11.80
2023-03-04T02:07:11.440Z,12.57
2023-03-04T02:09:38.416Z,11.40
2023-03-04T02:12:05.680Z,12.65
2023-03-04T02:14:39.404Z,11.93
2023-03-04T02:17:12.393Z,12.20
2023-03-04T02:20:20.441Z,11.23
2023-03-04T02:23:01.414Z,11.27
2023-03-04T02:25:36.039Z,11.32
2023-03-04T02:28:09.376Z,11.57
2023-03-04T02:30:36.400Z,11.40
2023-03-04T02:33:03.451Z,10.10
2023-03-04T02:35:37.491Z,10.85
2023-03-04T02:38:04.542Z,11.50
2023-03-04T02:40:38.428Z,10.52
2023-03-04T02:43:05.560Z,10.48
2023-03-04T02:45:55.444Z,10.02
2023-03-04T02:48:22.597Z,10.52
2023-03-04T02:50:58.407Z,11.77
2023-03-04T02:53:25.586Z,10.55
2023-03-04T02:55:59.440Z,11.40
2023-03-04T02:58:33.471Z,11.98
2023-03-04T03:01:00.423Z,11.40
2023-03-04T03:03:34.437Z,11.82
2023-03-04T03:06:01.375Z,11.65
2023-03-04T03:08:34.451Z,11.70
2023-03-04T03:11:01.431Z,11.93
2023-03-04T03:13:35.389Z,11.70
2023-03-04T03:16:08.439Z,12.13
2023-03-04T03:18:35.448Z,11.35
2023-03-04T03:21:08.515Z,10.98
2023-03-04T03:23:42.490Z,11.27
2023-03-04T03:26:09.658Z,11.25
2023-03-04T03:28:43.480Z,11.48
2023-03-04T03:31:10.567Z,11.68
2023-03-04T03:33:37.568Z,11.18
2023-03-04T03:36:11.482Z,10.40
2023-03-04T03:38:38.730Z,11.40
2023-03-04T03:41:05.982Z,11.13
2023-03-04T03:43:39.462Z,11.80
2023-03-04T03:46:06.470Z,10.68
2023-03-04T03:48:40.437Z,10.35
2023-03-04T03:51:07.476Z,10.50
2023-03-04T03:53:40.461Z,10.85
2023-03-04T03:56:07.758Z,10.18
2023-03-04T03:58:41.466Z,10.10
2023-03-04T04:01:08.445Z,10.30
2023-03-04T04:03:35.694Z,10.95
2023-03-04T04:06:09.462Z,10.10
2023-03-04T04:08:36.467Z,10.32
2023-03-04T04:11:10.535Z,10.95
2023-03-04T04:13:44.511Z,9.77
2023-03-04T04:16:11.614Z,9.90
2023-03-04T04:18:45.423Z,10.75
2023-03-04T04:21:18.513Z,10.05
2023-03-04T04:23:45.534Z,10.05
2023-03-04T04:26:12.492Z,10.13
2023-03-04T04:28:45.487Z,10.35
2023-03-04T04:31:12.524Z,11.25
2023-03-04T04:33:46.498Z,10.57
2023-03-04T04:36:14.912Z,10.98
2023-03-04T04:38:48.451Z,10.68
2023-03-04T04:41:30.466Z,11.40
2023-03-04T04:43:57.524Z,10.48
2023-03-04T04:46:30.458Z,10.90
2023-03-04T04:48:57.393Z,11.07
2023-03-04T04:51:31.567Z,10.15
2023-03-04T04:53:59.920Z,11.05
2023-03-04T04:56:26.932Z,11.15
2023-03-04T04:59:05.465Z,10.20
2023-03-04T05:01:32.656Z,11.35
2023-03-04T05:04:06.506Z,10.55
2023-03-04T05:06:33.581Z,10.07
2023-03-04T05:09:07.553Z,11.13
2023-03-04T05:11:34.557Z,11.50
2023-03-04T05:14:01.562Z,10.52
2023-03-04T05:16:35.476Z,10.52
2023-03-04T05:19:02.488Z,10.63
2023-03-04T05:21:35.472Z,10.13
2023-03-04T05:24:02.515Z,9.63
2023-03-04T05:26:36.521Z,9.82
2023-03-04T05:29:03.907Z,9.18
2023-03-04T05:31:37.469Z,9.13
2023-03-04T05:34:10.526Z,9.77
2023-03-04T05:36:37.498Z,8.70
2023-03-04T05:39:10.557Z,9.60
2023-03-04T05:41:43.526Z,9.32
2023-03-04T05:44:10.488Z,9.63
2023-03-04T05:46:37.509Z,9.25
2023-03-04T05:49:11.457Z,8.93
2023-03-04T05:51:51.474Z,9.48
2023-03-04T05:54:18.424Z,8.60
2023-03-04T05:56:52.539Z,9.68
2023-03-04T05:59:19.422Z,9.38
2023-03-04T06:01:54.514Z,9.48
2023-03-04T06:04:21.485Z,10.02
2023-03-04T06:06:54.537Z,9.50
2023-03-04T06:09:21.508Z,10.05
2023-03-04T06:11:48.435Z,9.95
2023-03-04T06:14:22.563Z,8.85
2023-03-04T06:16:49.567Z,11.10
2023-03-04T06:19:22.509Z,9.10
2023-03-04T06:21:55.508Z,9.93
2023-03-04T06:24:28.571Z,10.02
2023-03-04T06:26:55.465Z,8.88
2023-03-04T06:29:29.507Z,9.00
2023-03-04T06:31:56.467Z,9.45
2023-03-04T06:34:29.556Z,8.13
2023-03-04T06:36:56.494Z,10.32
2023-03-04T06:39:29.570Z,9.15
2023-03-04T06:42:06.654Z,9.02
2023-03-04T06:44:33.668Z,9.15
2023-03-04T06:47:00.690Z,9.68
2023-03-04T06:49:34.535Z,8.90
2023-03-04T06:52:01.469Z,9.23
2023-03-04T06:54:28.374Z,8.55
2023-03-04T06:57:01.578Z,8.93
2023-03-04T06:59:28.581Z,9.60
2023-03-04T07:01:55.590Z,9.90
2023-03-04T07:04:29.541Z,11.35
2023-03-04T07:07:02.527Z,12.55
2023-03-04T07:09:29.598Z,11.40
2023-03-04T07:12:03.585Z,11.00
2023-03-04T07:14:37.536Z,10.35
2023-03-04T07:17:04.525Z,11.27
2023-03-04T07:19:37.520Z,10.38
2023-03-04T07:22:04.469Z,10.07
2023-03-04T07:24:37.501Z,10.23
2023-03-04T07:27:10.499Z,10.25
2023-03-04T07:29:37.446Z,9.75
2023-03-04T07:32:15.654Z,9.90
2023-03-04T07:34:49.608Z,9.68
2023-03-04T07:37:16.639Z,9.98
2023-03-04T07:39:50.578Z,10.20
2023-03-04T07:42:17.549Z,10.45
2023-03-04T07:44:50.515Z,11.18
2023-03-04T07:47:17.511Z,10.85
2023-03-04T07:49:50.596Z,9.60
2023-03-04T07:52:17.599Z,9.98
2023-03-04T07:54:50.570Z,10.30
2023-03-04T07:57:17.489Z,10.65
2023-03-04T07:59:44.456Z,10.05
2023-03-04T08:02:17.618Z,10.50
2023-03-04T08:04:44.569Z,10.50
2023-03-04T08:07:17.603Z,11.30
2023-03-04T08:09:51.618Z,11.68
2023-03-04T08:12:18.715Z,9.68
2023-03-04T08:14:52.614Z,9.88
2023-03-04T08:17:19.722Z,9.52
2023-03-04T08:19:53.600Z,8.75
2023-03-04T08:22:20.557Z,10.38
2023-03-04T08:24:53.567Z,9.75
2023-03-04T08:27:20.484Z,9.63
2023-03-04T08:29:53.573Z,8.68
2023-03-04T08:32:20.680Z,10.00
2023-03-04T08:35:00.578Z,8.95
2023-03-04T08:37:27.554Z,9.27
2023-03-04T08:40:00.723Z,10.27
2023-03-04T08:42:34.566Z,9.57
2023-03-04T08:45:01.597Z,9.05
2023-03-04T08:47:34.634Z,9.57
2023-03-04T08:50:08.636Z,9.88
2023-03-04T08:52:36.036Z,10.32
2023-03-04T08:55:03.026Z,9.95
2023-03-04T08:57:36.643Z,10.93
2023-03-04T09:00:04.496Z,11.57
2023-03-04T09:02:37.685Z,10.25
2023-03-04T09:05:06.310Z,10.60
2023-03-04T09:07:39.675Z,12.40
2023-03-04T09:10:07.362Z,11.43
2023-03-04T09:12:34.290Z,11.30
2023-03-04T09:15:11.658Z,10.10
2023-03-04T09:17:39.896Z,9.57
2023-03-04T09:20:15.679Z,10.15
2023-03-04T09:22:42.735Z,9.25
2023-03-04T09:25:17.614Z,9.02
2023-03-04T09:27:50.721Z,9.15
2023-03-04T09:30:18.036Z,10.27
2023-03-04T09:32:51.697Z,10.05
2023-03-04T09:35:18.895Z,9.48
2023-03-04T09:37:45.831Z,9.82
2023-03-04T09:40:28.646Z,10.25
2023-03-04T09:43:01.969Z,9.23
2023-03-04T09:45:52.674Z,9.23
2023-03-04T09:48:29.673Z,10.30
2023-03-04T09:51:21.273Z,10.30
2023-03-04T09:54:27.644Z,10.40
2023-03-04T09:57:15.624Z,9.40
2023-03-04T09:59:55.740Z,10.45
2023-03-04T10:02:53.296Z,9.82
2023-03-04T10:05:28.693Z,10.73
2023-03-04T10:08:07.614Z,9.77
2023-03-04T10:10:44.719Z,10.88
2023-03-04T10:13:15.557Z,10.93
2023-03-04T10:15:51.783Z,10.38
2023-03-04T10:18:31.693Z,11.10
2023-03-04T10:21:28.702Z,10.55
2023-03-04T10:23:57.195Z,9.77
2023-03-04T10:26:32.656Z,9.98
2023-03-04T10:29:06.673Z,10.70
2023-03-04T10:31:36.204Z,10.25
2023-03-04T10:34:12.731Z,11.02
2023-03-04T10:37:09.735Z,10.85
2023-03-04T10:39:46.661Z,11.07
2023-03-04T10:42:16.835Z,11.52
2023-03-04T10:45:04.673Z,10.98
2023-03-04T10:47:32.537Z,9.60
2023-03-04T10:50:07.666Z,10.30
2023-03-04T10:52:47.425Z,11.27
2023-03-04T10:55:48.676Z,11.60
2023-03-04T10:58:23.638Z,10.43
2023-03-04T11:01:06.134Z,11.05
2023-03-04T11:03:43.720Z,10.55
2023-03-04T11:06:28.666Z,11.23
2023-03-04T11:08:59.688Z,10.93
2023-03-04T11:11:46.712Z,10.95
2023-03-04T11:14:46.600Z,13.27
2023-03-04T11:17:52.664Z,11.73
2023-03-04T11:20:42.734Z,12.15
2023-03-04T11:23:26.338Z,12.32
2023-03-04T11:26:10.661Z,11.05
2023-03-04T11:28:56.715Z,11.80
2023-03-04T11:31:40.494Z,12.02
2023-03-04T11:34:56.760Z,13.07
2023-03-04T11:37:33.304Z,11.80
2023-03-04T11:40:50.721Z,12.50
2023-03-04T11:43:39.295Z,13.10
2023-03-04T11:46:36.845Z,12.23
2023-03-04T11:49:37.789Z,12.65
2023-03-04T11:52:41.898Z,12.73
2023-03-04T11:55:20.750Z,12.77
2023-03-04T11:58:23.473Z,11.20
2023-03-04T12:01:23.193Z,11.77
2023-03-04T12:03:59.179Z,11.88
2023-03-04T12:07:20.770Z,12.98
2023-03-04T12:09:58.518Z,12.88
2023-03-04T12:13:19.284Z,11.40
2023-03-04T12:16:05.017Z,11.02
2023-03-04T12:19:02.810Z,11.18
2023-03-04T12:21:41.659Z,9.57
2023-03-04T12:24:33.770Z,9.70
2023-03-04T12:27:57.856Z,9.90
2023-03-04T12:30:34.630Z,9.07
2023-03-04T12:33:38.797Z,9.45
2023-03-04T12:36:44.699Z,8.82
2023-03-04T12:39:58.794Z,9.20
2023-03-04T12:43:35.685Z,9.05
2023-03-04T12:46:50.815Z,7.60
2023-03-04T12:50:04.783Z,7.13
2023-03-04T12:53:01.809Z,7.93
2023-03-04T12:55:46.824Z,8.55
2023-03-04T12:58:29.171Z,7.13
2023-03-04T13:01:05.875Z,8.02
2023-03-04T13:03:37.905Z,8.65
2023-03-04T13:06:32.797Z,9.32
2023-03-04T13:09:22.814Z,8.00
2023-03-04T13:11:55.938Z,9.23
2023-03-04T13:14:26.225Z,7.38
2023-03-04T13:17:03.801Z,8.10
2023-03-04T13:19:49.838Z,7.63
2023-03-04T13:22:51.840Z,6.75
2023-03-04T13:26:04.810Z,6.95
2023-03-04T13:28:40.933Z,7.15
2023-03-04T13:31:27.855Z,7.20
2023-03-04T13:33:56.864Z,8.30
2023-03-04T13:37:01.769Z,8.38
2023-03-04T13:39:29.503Z,7.28
2023-03-04T13:42:02.863Z,7.32
2023-03-04T13:44:44.886Z,7.90
2023-03-04T13:47:27.830Z,7.75
2023-03-04T13:50:37.387Z,8.13
2023-03-04T13:53:36.803Z,8.07
2023-03-04T13:56:13.802Z,7.53
2023-03-04T13:58:46.838Z,8.13
2023-03-04T14:01:29.546Z,8.25
2023-03-04T14:04:02.854Z,8.02
2023-03-04T14:06:30.937Z,7.53
2023-03-04T14:08:58.177Z,10.02
2023-03-04T14:11:45.891Z,9.23
2023-03-04T14:14:15.536Z,8.10
2023-03-04T14:17:04.836Z,8.63
2023-03-04T14:19:39.665Z,8.52
2023-03-04T14:22:47.862Z,9.55
2023-03-04T14:25:20.817Z,9.10
2023-03-04T14:27:54.819Z,8.25
2023-03-04T14:30:41.587Z,8.38
2023-03-04T14:33:27.789Z,8.25
2023-03-04T14:36:03.839Z,8.57
2023-03-04T14:38:40.819Z,9.32
2023-03-04T14:41:10.256Z,9.30
2023-03-04T14:44:11.904Z,9.35
2023-03-04T14:47:04.831Z,9.80
2023-03-04T14:49:35.747Z,8.75
2023-03-04T14:52:08.817Z,8.75
2023-03-04T14:54:48.890Z,8.65
2023-03-04T14:57:36.139Z,8.52
2023-03-04T15:00:28.881Z,9.10
2023-03-04T15:03:10.855Z,8.63
2023-03-04T15:05:43.852Z,8.48
2023-03-04T15:08:37.986Z,8.68
2023-03-04T15:11:12.860Z,7.70
2023-03-04T15:13:44.194Z,7.85
2023-03-04T15:16:19.956Z,8.60
2023-03-04T15:19:33.824Z,8.75
2023-03-04T15:22:05.895Z,7.88
2023-03-04T15:24:38.826Z,8.02
2023-03-04T15:27:05.774Z,7.60
2023-03-04T15:29:38.878Z,7.85
2023-03-04T15:32:06.085Z,7.10
2023-03-04T15:34:39.843Z,7.57
2023-03-04T15:37:06.946Z,8.20
2023-03-04T15:39:40.888Z,8.30
2023-03-04T15:42:09.727Z,7.75
2023-03-04T15:44:42.880Z,8.13
2023-03-04T15:47:11.486Z,7.90
2023-03-04T15:49:45.867Z,7.82
2023-03-04T15:52:21.014Z,7.60
2023-03-04T15:54:54.866Z,22.95
2023-03-04T15:57:26.568Z,20.10
2023-03-04T15:59:59.974Z,13.23
2023-03-04T16:02:27.119Z,9.60
2023-03-04T16:05:00.912Z,10.45
2023-03-04T16:07:29.493Z,11.05
2023-03-04T16:10:05.958Z,12.25
2023-03-04T16:12:33.054Z,12.05
2023-03-04T16:15:07.000Z,10.32
2023-03-04T16:17:34.003Z,9.45
2023-03-04T16:20:07.977Z,10.57
2023-03-04T16:22:41.897Z,10.75
2023-03-04T16:25:19.885Z,11.05
2023-03-04T16:27:47.043Z,14.80
2023-03-04T16:30:28.895Z,13.60
2023-03-04T16:33:02.945Z,11.93
2023-03-04T16:35:29.954Z,11.77
2023-03-04T16:38:03.853Z,15.73
2023-03-04T16:40:31.039Z,15.40
2023-03-04T16:42:58.097Z,16.33
2023-03-04T16:45:33.914Z,13.60
2023-03-04T16:48:00.880Z,15.65
2023-03-04T16:50:33.919Z,14.20
2023-03-04T16:53:00.951Z,15.10
2023-03-04T16:55:35.918Z,15.18
2023-03-04T16:58:02.859Z,14.65
2023-03-04T17:00:36.017Z,13.50
2023-03-04T17:03:03.087Z,12.13
2023-03-04T17:05:37.877Z,12.90
2023-03-04T17:08:04.893Z,12.18
2023-03-04T17:10:31.852Z,12.57
2023-03-04T17:13:04.962Z,13.80
2023-03-04T17:15:31.974Z,15.15
2023-03-04T17:18:05.905Z,17.90
2023-03-04T17:20:38.926Z,18.02
2023-03-04T17:23:05.937Z,16.50
2023-03-04T17:25:40.002Z,13.68
2023-03-04T17:28:06.934Z,13.80
2023-03-04T17:30:39.970Z,14.60
2023-03-04T17:33:06.903Z,15.30
2023-03-04T17:35:39.966Z,15.60
2023-03-04T17:38:06.994Z,16.80
2023-03-04T17:40:34.013Z,17.33
2023-03-04T17:43:07.989Z,15.15
2023-03-04T17:45:35.019Z,17.42
2023-03-04T17:48:01.983Z,16.42
2023-03-04T17:50:35.943Z,15.85
2023-03-04T17:53:10.007Z,15.35
2023-03-04T17:55:37.084Z,18.00
2023-03-04T17:58:10.916Z,18.45
2023-03-04T18:00:38.089Z,16.20
2023-03-04T18:03:12.025Z,15.52
2023-03-04T18:05:42.528Z,16.27
2023-03-04T18:08:15.985Z,17.17
2023-03-04T18:10:43.013Z,15.70
2023-03-04T18:13:10.007Z,16.20
2023-03-04T18:15:43.958Z,19.33
2023-03-04T18:18:11.121Z,17.10
2023-03-04T18:20:44.996Z,17.23
2023-03-04T18:23:12.048Z,17.17
2023-03-04T18:25:45.920Z,22.52
2023-03-04T18:28:12.957Z,24.23
2023-03-04T18:30:57.263Z,22.75
2023-03-04T18:33:31.023Z,21.67
2023-03-04T18:36:14.016Z,28.73
2023-03-04T18:38:41.338Z,26.20
2023-03-04T18:41:16.986Z,19.42
2023-03-04T18:43:43.973Z,19.27
2023-03-04T18:46:23.036Z,18.85
2023-03-04T18:48:54.010Z,17.23
2023-03-04T18:51:28.021Z,18.10
2023-03-04T18:53:55.037Z,15.88
2023-03-04T18:56:52.958Z,14.18
2023-03-04T18:59:39.974Z,13.98
2023-03-04T19:02:28.224Z,12.70
2023-03-04T19:05:03.979Z,12.20
2023-03-04T19:07:30.921Z,13.35
2023-03-04T19:10:04.016Z,12.90
2023-03-04T19:12:31.017Z,11.88
2023-03-04T19:15:04.006Z,12.77
2023-03-04T19:17:31.097Z,15.00
2023-03-04T19:20:08.006Z,13.95
2023-03-04T19:22:35.430Z,14.85
2023-03-04T19:25:09.002Z,19.13
2023-03-04T19:27:36.358Z,17.15
2023-03-04T19:30:11.014Z,16.83
2023-03-04T19:32:38.073Z,16.77
2023-03-04T19:35:11.981Z,16.30
2023-03-04T19:37:45.063Z,15.82
2023-03-04T19:40:12.553Z,15.93
2023-03-04T19:42:45.990Z,16.60
2023-03-04T19:45:12.958Z,16.90
2023-03-04T19:47:46.056Z,16.13
2023-03-04T19:50:13.211Z,15.18
2023-03-04T19:52:46.995Z,17.35
2023-03-04T19:55:19.968Z,16.98
2023-03-04T19:57:46.972Z,17.27
2023-03-04T20:00:23.382Z,18.50
2023-03-04T20:02:50.991Z,18.65
2023-03-04T20:05:25.072Z,18.30
2023-03-04T20:07:59.012Z,17.63
2023-03-04T20:10:32.020Z,18.92
2023-03-04T20:13:06.003Z,19.50
2023-03-04T20:15:39.031Z,17.75
2023-03-04T20:18:13.055Z,20.08
2023-03-04T20:20:40.085Z,19.45
2023-03-04T20:23:07.029Z,20.55
2023-03-04T20:25:40.044Z,21.60
2023-03-04T20:28:13.060Z,21.67
2023-03-04T20:30:40.020Z,21.75
2023-03-04T20:33:13.023Z,20.88
2023-03-04T20:35:47.072Z,19.13
2023-03-04T20:38:21.021Z,19.25
2023-03-04T20:40:48.094Z,18.58
2023-03-04T20:43:22.054Z,19.30
2023-03-04T20:45:49.122Z,18.45
2023-03-04T20:48:23.005Z,18.55
2023-03-04T20:50:49.986Z,19.98
2023-03-04T20:53:23.031Z,19.08
2023-03-04T20:55:57.088Z,20.23
2023-03-04T20:58:24.073Z,19.55
2023-03-04T21:00:58.030Z,20.45
2023-03-04T21:03:25.040Z,18.58
2023-03-04T21:05:52.100Z,21.38
2023-03-04T21:08:25.111Z,20.65
2023-03-04T21:10:52.129Z,18.20
2023-03-04T21:13:26.096Z,18.67
2023-03-04T21:15:53.153Z,18.83
2023-03-04T21:18:28.571Z,18.17
2023-03-04T21:21:03.028Z,17.67
2023-03-04T21:23:30.086Z,17.95
2023-03-04T21:26:04.111Z,17.77
2023-03-04T21:28:31.192Z,17.95
2023-03-04T21:30:58.149Z,17.67
2023-03-04T21:33:39.061Z,17.35
2023-03-04T21:36:06.494Z,17.95
2023-03-04T21:38:40.048Z,18.00
2023-03-04T21:41:09.144Z,17.60
2023-03-04T21:43:43.052Z,17.40
2023-03-04T21:46:12.690Z,17.63
2023-03-04T21:48:46.100Z,17.95
2023-03-04T21:51:13.967Z,17.65
2023-03-04T21:53:50.083Z,16.67
2023-03-04T21:56:17.044Z,16.40
2023-03-04T21:58:50.063Z,16.88
2023-03-04T22:01:20.186Z,16.50
2023-03-04T22:03:47.636Z,17.33
2023-03-04T22:06:22.093Z,17.05
2023-03-04T22:08:55.755Z,15.52
2023-03-04T22:12:06.083Z,15.80
2023-03-04T22:15:12.734Z,16.38
2023-03-04T22:17:46.221Z,16.63
2023-03-04T22:20:13.688Z,17.15
2023-03-04T22:22:40.704Z,16.38
2023-03-04T22:25:23.290Z,16.02
2023-03-04T22:27:53.168Z,16.55
2023-03-04T22:30:30.514Z,15.98
2023-03-04T22:32:57.543Z,16.52
2023-03-04T22:38:32.124Z,17.98
2023-03-04T22:41:05.201Z,17.85
2023-03-04T22:43:32.079Z,17.15
2023-03-04T22:46:05.388Z,17.17
2023-03-04T22:48:32.330Z,18.25
2023-03-04T22:51:12.151Z,18.63
2023-03-04T22:53:39.055Z,19.05
2023-03-04T22:56:13.143Z,18.02
2023-03-04T22:58:40.622Z,17.63
2023-03-04T23:01:08.027Z,19.10
2023-03-04T23:03:42.123Z,19.13
2023-03-04T23:06:11.633Z,18.45
2023-03-04T23:08:46.126Z,18.50
2023-03-04T23:11:24.866Z,18.58
2023-03-04T23:13:58.149Z,18.23
2023-03-04T23:16:25.518Z,18.05
2023-03-04T23:18:52.456Z,17.05
2023-03-04T23:21:31.143Z,17.92
2023-03-04T23:23:58.008Z,18.65
2023-03-04T23:26:34.102Z,17.65
2023-03-04T23:29:02.372Z,17.45
2023-03-04T23:31:39.144Z,18.00
2023-03-04T23:34:06.095Z,16.77
2023-03-04T23:36:34.728Z,18.42
2023-03-04T23:39:08.196Z,18.92
2023-03-04T23:41:45.146Z,18.42
2023-03-04T23:44:19.151Z,17.63
2023-03-04T23:46:46.003Z,18.75
2023-03-04T23:49:20.161Z,15.85
2023-03-04T23:51:47.147Z,17.00
2023-03-04T23:54:51.784Z,17.38
2023-03-04T23:57:18.474Z,16.52
2023-03-04T23:59:52.120Z,16.25
